MV Finola — OULQ2 — position and weather

sailwx.info

Track history (hours):
 
Tides and Currents Weather Stations Pressure Air Temp Water Temp Dewpoint Dewpoint Depression Visibility Wind Speed Wind Dir Waves Ship Positions

MV Finola

Last reported at 2016-Apr-25 12:33 UTC. Time now 2016-May-02 12:34 UTC.
Position N 01°15' E 104°05'.

Length 85 m; draft 3.3 m.

Type: Cargo ship. MMSI: 219483000.

Date/timePositionNaut miles runAvg speedWind from/ knotsBaromVisibWave heightAir tempDewpointWater temp
2016-Apr-25 12:33N 01°15' E 104°05'9 8.6
2016-Apr-25 11:33N 01°15' E 103°56'3 2.4
2016-Apr-25 10:31N 01°17' E 103°54'0 0.0
2016-Apr-25 09:28N 01°17' E 103°54'0 0.0
2016-Apr-25 08:25N 01°17' E 103°54'0 0.0
2016-Apr-25 07:28N 01°17' E 103°54'0 0.0
2016-Apr-25 06:16N 01°17' E 103°54'0 0.0
2016-Apr-25 05:31N 01°17' E 103°54'0 0.0
2016-Apr-25 03:28N 01°17' E 103°54'0 0.1
2016-Apr-25 02:19N 01°17' E 103°54'3 3.5
2016-Apr-25 01:33N 01°14' E 103°54'8 7.6
2016-Apr-25 00:33N 01°16' E 104°02'  
Track history (hours):
 
Tides and Currents Weather Stations Pressure Air Temp Water Temp Dewpoint Dewpoint Depression Visibility Wind Speed Wind Dir Waves Ship Positions

MV Finola

Last reported at 2016-Apr-25 12:33 UTC. Time now 2016-May-02 12:34 UTC.
Position N 01°15' E 104°05'.

Length 85 m; draft 3.3 m.

Type: Cargo ship. MMSI: 219483000.

Date/timePositionNaut miles runAvg speedWind from/ knotsBaromVisibWave heightAir tempDewpointWater temp
2016-Apr-25 12:33N 01°15' E 104°05'9 8.6
2016-Apr-25 11:33N 01°15' E 103°56'3 2.4
2016-Apr-25 10:31N 01°17' E 103°54'0 0.0
2016-Apr-25 09:28N 01°17' E 103°54'0 0.0
2016-Apr-25 08:25N 01°17' E 103°54'0 0.0
2016-Apr-25 07:28N 01°17' E 103°54'0 0.0
2016-Apr-25 06:16N 01°17' E 103°54'0 0.0
2016-Apr-25 05:31N 01°17' E 103°54'0 0.0
2016-Apr-25 03:28N 01°17' E 103°54'0 0.1
2016-Apr-25 02:19N 01°17' E 103°54'3 3.5
2016-Apr-25 01:33N 01°14' E 103°54'8 7.6
2016-Apr-25 00:33N 01°16' E 104°02'  

Dump ship's entire track history